Time;durP1;ratioP1;P1;durP2;ratioP2;P2;SDS_P1;SDS_P2;PMS_P1;PMS_P2;Temp;Humidity;BMP_temperature;BMP_pressure;BME280_temperature;BME280_humidity;BME280_pressure;Samples;Min_cycle;Max_cycle;Signal;HPM_P1;HPM_P2
2022/06/22 00:01:05;;;;;;;9.68;4.72;;;26.90;51.50;;;;;;5052705;28;20025;-75
2022/06/22 00:03:33;;;;;;;12.18;4.10;;;26.90;49.90;;;;;;5053038;28;20032;-76
2022/06/22 00:05:59;;;;;;;9.50;4.38;;;26.80;51.60;;;;;;5053050;28;20050;-74
2022/06/22 00:08:33;;;;;;;8.88;4.40;;;26.80;52.20;;;;;;5051838;28;20359;-76
2022/06/22 00:11:12;;;;;;;7.63;4.60;;;26.80;51.60;;;;;;5041495;28;20025;-74
2022/06/22 00:13:44;;;;;;;10.38;4.35;;;26.80;51.80;;;;;;5031684;28;20033;-75
2022/06/22 00:16:19;;;;;;;9.80;4.20;;;26.80;51.70;;;;;;5031732;28;20037;-74
2022/06/22 00:18:48;;;;;;;14.70;4.78;;;26.80;51.80;;;;;;5035473;28;20021;-74
2022/06/22 00:21:27;;;;;;;8.73;4.63;;;26.90;51.80;;;;;;5036177;28;20028;-74
2022/06/22 00:23:57;;;;;;;10.18;4.55;;;26.80;51.80;;;;;;5036322;28;20463;-75
2022/06/22 00:26:22;;;;;;;10.52;4.70;;;26.80;51.30;;;;;;5036035;28;20025;-75
2022/06/22 00:29:00;;;;;;;9.60;4.22;;;26.80;51.30;;;;;;5036319;28;20052;-75
2022/06/22 00:31:49;;;;;;;8.98;4.20;;;26.80;51.10;;;;;;5037674;28;20034;-74
2022/06/22 00:34:16;;;;;;;11.40;4.30;;;26.80;51.00;;;;;;5035407;28;20075;-75
2022/06/22 00:37:02;;;;;;;12.05;4.97;;;26.80;51.30;;;;;;5036552;28;20026;-75
2022/06/22 00:39:28;;;;;;;8.10;4.43;;;26.80;50.40;;;;;;5035028;28;20032;-74
2022/06/22 00:42:15;;;;;;;13.38;4.53;;;26.80;51.40;;;;;;5035396;28;20033;-74
2022/06/22 00:45:08;;;;;;;7.47;4.07;;;26.80;50.50;;;;;;5036559;28;20067;-75
2022/06/22 00:47:53;;;;;;;9.90;4.65;;;26.80;50.50;;;;;;5035104;28;20139;-76
2022/06/22 00:50:23;;;;;;;11.68;4.68;;;26.70;50.60;;;;;;5036141;28;20499;-74
2022/06/22 00:52:54;;;;;;;7.50;4.60;;;26.70;51.90;;;;;;5035971;28;20033;-74
2022/06/22 00:55:42;;;;;;;8.32;4.80;;;26.70;50.70;;;;;;5034838;28;20109;-73
2022/06/22 00:58:08;;;;;;;13.10;4.57;;;26.60;52.30;;;;;;5018438;28;20116;-74
2022/06/22 01:00:40;;;;;;;9.57;5.22;;;26.60;51.70;;;;;;5035401;28;20109;-74
2022/06/22 01:03:15;;;;;;;10.00;4.75;;;26.60;51.70;;;;;;5035721;28;20044;-74
2022/06/22 01:05:46;;;;;;;12.05;4.57;;;26.60;51.50;;;;;;5035845;28;20051;-75
2022/06/22 01:08:21;;;;;;;8.32;5.03;;;26.60;51.60;;;;;;5035345;28;20075;-75
2022/06/22 01:10:59;;;;;;;9.55;4.95;;;26.60;50.20;;;;;;5035380;28;20443;-74
2022/06/22 01:13:35;;;;;;;11.52;4.80;;;26.60;51.70;;;;;;5035228;28;20034;-73
2022/06/22 01:16:36;;;;;;;16.50;6.18;;;26.60;51.90;;;;;;5034064;28;20035;-74
2022/06/22 01:19:46;;;;;;;13.25;6.60;;;26.50;50.50;;;;;;5035299;28;20108;-73
2022/06/22 01:22:45;;;;;;;10.77;4.93;;;26.50;50.10;;;;;;5036171;28;20030;-76
2022/06/22 01:25:26;;;;;;;11.07;5.30;;;26.60;50.30;;;;;;5035297;28;20033;-75
2022/06/22 01:27:52;;;;;;;8.25;4.47;;;26.50;50.20;;;;;;5035060;28;20025;-74
2022/06/22 01:30:43;;;;;;;11.60;4.68;;;26.60;51.90;;;;;;5034846;28;20068;-73
2022/06/22 01:33:17;;;;;;;7.57;4.55;;;26.60;50.90;;;;;;5034900;28;20033;-74
2022/06/22 01:35:43;;;;;;;9.88;4.80;;;26.60;52.20;;;;;;5034891;28;20084;-74
2022/06/22 01:38:18;;;;;;;9.70;4.38;;;26.60;52.00;;;;;;5033463;28;20025;-73
2022/06/22 01:40:57;;;;;;;13.90;4.60;;;26.50;52.30;;;;;;5034713;28;20026;-73
2022/06/22 01:43:56;;;;;;;9.73;5.65;;;26.60;52.30;;;;;;5034874;28;20097;-74
2022/06/22 01:46:36;;;;;;;10.60;4.95;;;26.50;52.10;;;;;;5034194;28;20426;-74
2022/06/22 01:49:18;;;;;;;7.13;5.07;;;26.50;50.80;;;;;;5034738;28;20060;-74
2022/06/22 01:52:21;;;;;;;9.77;5.05;;;26.50;51.00;;;;;;5032919;28;20042;-72
2022/06/22 01:55:04;;;;;;;10.45;4.53;;;26.40;51.30;;;;;;5034724;28;20032;-74
2022/06/22 01:57:41;;;;;;;9.27;5.20;;;26.30;52.60;;;;;;5033326;28;20030;-74
2022/06/22 02:00:17;;;;;;;14.55;6.07;;;26.30;52.80;;;;;;5034452;28;20092;-74
2022/06/22 02:02:49;;;;;;;13.82;5.28;;;26.20;51.90;;;;;;5034304;28;20478;-73
2022/06/22 02:05:44;;;;;;;10.63;6.40;;;26.20;52.90;;;;;;5033098;28;20025;-73
2022/06/22 02:08:28;;;;;;;17.52;6.82;;;26.20;52.40;;;;;;5034312;28;20029;-73
2022/06/22 02:11:05;;;;;;;9.48;6.32;;;26.10;53.00;;;;;;5034209;28;20090;-74
2022/06/22 02:13:52;;;;;;;10.93;6.20;;;26.10;52.20;;;;;;5034100;28;20101;-73
2022/06/22 02:16:30;;;;;;;12.07;5.68;;;26.10;52.60;;;;;;5033874;28;20075;-73
2022/06/22 02:18:59;;;;;;;15.63;5.80;;;26.10;52.50;;;;;;5034026;28;20037;-74
2022/06/22 02:21:50;;;;;;;11.93;5.65;;;26.10;53.10;;;;;;5033960;28;20104;-73
2022/06/22 02:24:22;;;;;;;11.68;5.80;;;26.10;52.70;;;;;;5033991;28;20029;-73
2022/06/22 02:26:51;;;;;;;13.93;6.17;;;26.10;53.60;;;;;;5034152;28;20477;-74
2022/06/22 02:29:20;;;;;;;11.13;5.90;;;26.10;53.30;;;;;;5033875;28;20426;-75
2022/06/22 02:31:46;;;;;;;9.40;6.60;;;26.00;53.30;;;;;;5032423;28;20444;-74
2022/06/22 02:34:15;;;;;;;12.80;7.03;;;26.00;53.60;;;;;;5033673;28;20029;-73
2022/06/22 02:36:44;;;;;;;11.43;6.88;;;26.00;53.80;;;;;;5033655;28;20037;-74
2022/06/22 02:39:11;;;;;;;15.25;7.72;;;26.00;53.60;;;;;;5033735;28;20360;-74
2022/06/22 02:44:30;;;;;;;12.90;7.05;;;26.00;53.60;;;;;;5033787;28;20489;-74
2022/06/22 02:47:03;;;;;;;14.07;7.07;;;26.00;54.00;;;;;;5033593;28;20017;-73
2022/06/22 02:49:31;;;;;;;;;;;26.10;54.50;;;;;;5033599;28;20155;-73
2022/06/22 02:51:59;;;;;;;11.40;6.18;;;26.10;54.90;;;;;;5033192;28;19916;-74
2022/06/22 02:54:36;;;;;;;11.02;6.72;;;26.00;54.60;;;;;;5032049;28;20030;-74
2022/06/22 02:57:19;;;;;;;9.68;5.70;;;26.10;55.40;;;;;;5033696;28;20029;-73
2022/06/22 02:59:47;;;;;;;13.25;6.45;;;26.10;55.70;;;;;;5033946;28;20104;-74
2022/06/22 03:02:13;;;;;;;11.75;6.47;;;26.10;55.90;;;;;;5033522;28;20067;-73
2022/06/22 03:04:41;;;;;;;10.18;6.50;;;26.00;55.80;;;;;;5034513;28;20022;-74
2022/06/22 03:07:07;;;;;;;12.18;6.93;;;26.00;56.20;;;;;;5033765;28;20057;-74
2022/06/22 03:09:33;;;;;;;17.85;6.47;;;26.00;56.10;;;;;;5032882;28;20095;-74
2022/06/22 03:12:00;;;;;;;14.43;6.55;;;25.90;57.40;;;;;;5033524;28;20033;-73
2022/06/22 03:14:37;;;;;;;11.52;6.32;;;25.80;57.60;;;;;;5033096;28;20029;-75
2022/06/22 03:17:05;;;;;;;14.52;6.00;;;25.80;58.20;;;;;;5033067;28;20021;-73
2022/06/22 03:19:41;;;;;;;15.13;5.97;;;25.70;58.30;;;;;;5033164;28;20045;-74
2022/06/22 03:22:23;;;;;;;14.07;5.88;;;25.70;59.10;;;;;;5033029;28;20105;-74
2022/06/22 03:25:00;;;;;;;12.63;6.03;;;25.60;59.40;;;;;;5032928;28;20017;-74
2022/06/22 03:27:32;;;;;;;10.90;6.03;;;25.60;59.70;;;;;;5032880;28;20108;-73
2022/06/22 03:30:09;;;;;;;11.38;6.28;;;25.40;60.00;;;;;;5031506;28;20380;-73
2022/06/22 03:32:45;;;;;;;8.60;5.43;;;25.40;60.50;;;;;;5033226;28;20069;-72
2022/06/22 03:35:19;;;;;;;12.70;6.18;;;25.40;60.60;;;;;;5033209;28;20047;-74
2022/06/22 03:37:55;;;;;;;10.95;6.18;;;25.40;60.40;;;;;;5032029;28;20080;-75
2022/06/22 03:40:30;;;;;;;14.05;7.25;;;25.40;60.60;;;;;;5032984;28;20082;-74
2022/06/22 03:43:14;;;;;;;13.27;6.10;;;25.40;60.70;;;;;;5033008;28;20021;-75
2022/06/22 03:45:46;;;;;;;9.95;6.45;;;25.40;60.90;;;;;;5032821;28;20041;-75
2022/06/22 03:48:38;;;;;;;12.23;6.20;;;25.30;61.10;;;;;;5032843;28;20068;-75
2022/06/22 03:51:26;;;;;;;12.13;6.43;;;25.30;61.70;;;;;;5032398;28;20057;-74
2022/06/22 03:53:58;;;;;;;12.88;6.18;;;25.40;61.60;;;;;;5036722;28;20524;-75
2022/06/22 03:56:29;;;;;;;11.45;6.20;;;25.30;61.10;;;;;;5036543;28;20092;-75
2022/06/22 03:58:56;;;;;;;14.27;6.63;;;25.30;61.30;;;;;;5036778;28;20104;-74
2022/06/22 04:01:22;;;;;;;12.88;7.00;;;25.30;61.20;;;;;;5036519;28;20022;-74
2022/06/22 04:03:50;;;;;;;14.63;6.43;;;25.30;61.00;;;;;;5036706;28;20091;-74
2022/06/22 04:06:32;;;;;;;12.27;6.07;;;25.40;60.70;;;;;;5036473;28;20030;-74
2022/06/22 04:09:00;;;;;;;11.95;8.25;;;25.40;60.80;;;;;;5036740;28;20387;-75
2022/06/22 04:11:46;;;;;;;11.45;6.57;;;25.50;60.50;;;;;;5036164;28;20033;-75
2022/06/22 04:14:17;;;;;;;13.07;6.40;;;25.50;60.60;;;;;;5036188;28;20116;-75
2022/06/22 04:16:48;;;;;;;13.18;6.50;;;25.50;60.60;;;;;;5036319;28;20033;-75
2022/06/22 04:19:29;;;;;;;14.85;5.80;;;25.50;60.40;;;;;;5036237;28;20516;-75
2022/06/22 04:22:11;;;;;;;15.65;6.22;;;25.50;60.20;;;;;;5036347;28;20049;-75
2022/06/22 04:24:49;;;;;;;13.40;6.40;;;25.50;60.70;;;;;;5036389;28;20112;-75
2022/06/22 04:27:34;;;;;;;8.95;5.93;;;25.50;60.80;;;;;;5036289;28;20052;-75
2022/06/22 04:30:02;;;;;;;11.57;6.70;;;25.50;60.80;;;;;;5036320;28;20013;-75
2022/06/22 04:32:37;;;;;;;14.15;6.72;;;25.50;60.60;;;;;;5036230;28;20061;-74
2022/06/22 04:35:21;;;;;;;9.70;5.75;;;25.50;60.40;;;;;;5036197;28;20025;-74
2022/06/22 04:37:49;;;;;;;12.18;6.43;;;25.60;60.40;;;;;;5035994;28;20037;-76
2022/06/22 04:40:23;;;;;;;12.73;6.35;;;25.50;59.90;;;;;;5035906;28;20035;-75
2022/06/22 04:42:57;;;;;;;14.52;6.78;;;25.50;59.80;;;;;;5036352;28;20104;-76
2022/06/22 04:45:44;;;;;;;9.27;6.07;;;25.60;60.10;;;;;;5035882;28;20148;-75
2022/06/22 04:48:47;;;;;;;11.55;6.00;;;25.70;59.50;;;;;;5035943;28;20033;-76
2022/06/22 04:51:32;;;;;;;15.18;6.15;;;25.70;59.70;;;;;;5034477;28;20459;-75
2022/06/22 04:54:05;;;;;;;15.60;6.90;;;25.90;59.40;;;;;;5036382;28;20112;-76
2022/06/22 04:56:38;;;;;;;13.75;6.53;;;25.90;58.80;;;;;;5035501;28;20014;-74
2022/06/22 04:59:07;;;;;;;14.52;6.30;;;26.00;58.70;;;;;;5034369;28;20022;-76
2022/06/22 05:01:43;;;;;;;8.52;6.07;;;26.00;58.20;;;;;;5035520;28;20116;-76
2022/06/22 05:04:28;;;;;;;15.57;6.13;;;26.10;57.90;;;;;;5035220;28;20025;-76
2022/06/22 05:07:07;;;;;;;16.75;6.00;;;26.20;57.80;;;;;;5035505;28;20026;-75
2022/06/22 05:10:00;;;;;;;23.70;6.40;;;26.30;57.40;;;;;;5035312;28;20032;-75
2022/06/22 05:12:29;;;;;;;11.60;5.63;;;26.40;57.30;;;;;;5035309;28;20071;-75
2022/06/22 05:14:58;;;;;;;14.27;5.88;;;26.50;56.70;;;;;;5039495;28;20044;-75
2022/06/22 05:17:26;;;;;;;11.93;6.55;;;26.50;56.70;;;;;;5049292;28;20055;-78
2022/06/22 05:20:10;;;;;;;12.65;6.15;;;26.60;56.70;;;;;;5040923;28;20128;-76
2022/06/22 05:22:36;;;;;;;12.05;5.75;;;26.70;56.40;;;;;;5043513;28;20075;-76
2022/06/22 05:25:05;;;;;;;18.30;6.13;;;26.80;56.10;;;;;;5043949;28;20427;-76
2022/06/22 05:27:46;;;;;;;9.50;5.30;;;27.10;55.60;;;;;;5038830;28;20511;-72
2022/06/22 05:30:13;;;;;;;11.82;5.93;;;27.20;55.50;;;;;;5035172;28;20021;-76
2022/06/22 05:32:46;;;;;;;13.73;6.30;;;27.50;54.60;;;;;;5035116;28;20482;-76
2022/06/22 05:35:18;;;;;;;14.15;6.43;;;27.70;53.10;;;;;;5035252;28;20087;-74
2022/06/22 05:37:50;;;;;;;13.68;6.68;;;27.90;53.90;;;;;;5054783;28;20029;-74
2022/06/22 05:40:18;;;;;;;13.57;6.03;;;28.10;53.60;;;;;;5054795;28;20044;-79
2022/06/22 05:42:44;;;;;;;16.85;6.65;;;28.30;52.90;;;;;;5053858;28;20078;-80
2022/06/22 05:45:16;;;;;;;13.68;5.95;;;28.40;52.40;;;;;;5055154;28;20021;-80
2022/06/22 05:47:43;;;;;;;11.45;5.68;;;28.50;52.30;;;;;;5055261;28;20100;-82
2022/06/22 05:50:15;;;;;;;15.02;5.90;;;28.80;51.90;;;;;;5054063;28;20025;-75
2022/06/22 05:53:13;;;;;;;14.20;6.03;;;29.10;51.20;;;;;;5049087;28;20064;-80
2022/06/22 05:55:57;;;;;;;11.77;6.28;;;29.20;49.50;;;;;;5035279;28;20378;-80
2022/06/22 05:58:34;;;;;;;9.88;5.90;;;29.40;48.90;;;;;;5051274;28;20025;-81
2022/06/22 06:01:02;;;;;;;13.60;6.30;;;29.50;49.10;;;;;;5058832;28;20020;-83
2022/06/22 06:03:43;;;;;;;11.68;5.88;;;29.60;50.60;;;;;;5053382;28;20470;-82
2022/06/22 06:06:18;;;;;;;10.35;6.03;;;29.70;49.10;;;;;;5042580;28;20205;-79
2022/06/22 06:08:57;;;;;;;17.40;5.95;;;29.80;50.30;;;;;;5034870;28;20034;-77
2022/06/22 06:11:29;;;;;;;18.40;6.28;;;30.00;48.50;;;;;;5033248;28;20033;-75
2022/06/22 06:14:00;;;;;;;13.27;6.30;;;30.30;49.80;;;;;;5048831;28;20052;-73
2022/06/22 06:16:36;;;;;;;16.52;6.55;;;30.50;49.30;;;;;;5052767;28;20408;-74
2022/06/22 06:19:07;;;;;;;17.33;6.55;;;30.50;49.20;;;;;;5053485;28;20466;-76
2022/06/22 06:21:36;;;;;;;15.43;6.55;;;30.60;49.20;;;;;;5038958;28;20550;-76
2022/06/22 06:24:05;;;;;;;20.13;6.70;;;30.70;48.90;;;;;;5052798;28;20025;-74
2022/06/22 06:29:35;;;;;;;19.30;6.32;;;30.90;47.50;;;;;;5053734;28;20469;-79
2022/06/22 06:32:40;;;;;;;15.07;6.72;;;31.20;47.80;;;;;;5052202;28;20143;-77
2022/06/22 06:35:27;;;;;;;11.70;5.72;;;31.30;46.90;;;;;;5053795;28;20155;-76
2022/06/22 06:37:58;;;;;;;16.02;6.07;;;31.40;46.70;;;;;;5033780;28;20036;-76
2022/06/22 06:40:34;;;;;;;15.43;5.40;;;31.50;46.50;;;;;;5032143;28;20029;-77
2022/06/22 06:43:28;;;;;;;20.85;5.93;;;31.60;45.90;;;;;;5034417;28;20487;-78
2022/06/22 06:45:55;;;;;;;15.32;5.75;;;31.80;45.50;;;;;;5033658;28;20041;-78
2022/06/22 06:48:25;;;;;;;16.58;6.45;;;31.80;45.90;;;;;;5033888;28;20108;-79
2022/06/22 06:50:55;;;;;;;17.45;6.47;;;31.90;47.30;;;;;;5033372;28;20467;-80
2022/06/22 06:53:35;;;;;;;30.58;8.35;;;32.10;47.40;;;;;;5033059;28;20036;-79
2022/06/22 06:56:26;;;;;;;22.52;7.68;;;32.20;45.30;;;;;;5031859;28;20044;-73
2022/06/22 06:59:04;;;;;;;22.98;7.63;;;32.10;44.70;;;;;;5033398;28;20034;-78
2022/06/22 07:01:36;;;;;;;14.48;6.25;;;32.20;45.10;;;;;;5035683;28;20021;-79
2022/06/22 07:04:16;;;;;;;16.83;5.82;;;32.20;44.40;;;;;;5041722;28;20378;-71
2022/06/22 07:06:44;;;;;;;18.58;5.88;;;32.00;44.80;;;;;;5034772;28;20052;-72
2022/06/22 07:09:31;;;;;;;16.20;6.13;;;32.10;45.00;;;;;;5036251;28;20036;-76
2022/06/22 07:12:10;;;;;;;13.15;5.60;;;32.20;43.70;;;;;;5033157;28;20471;-72
2022/06/22 07:14:41;;;;;;;10.68;5.22;;;32.30;43.10;;;;;;5031686;28;20038;-76
2022/06/22 07:17:10;;;;;;;14.63;5.72;;;32.40;43.00;;;;;;5033009;28;20517;-76
2022/06/22 07:19:56;;;;;;;21.25;6.15;;;32.50;43.10;;;;;;5015178;28;20403;-77
2022/06/22 07:22:36;;;;;;;15.50;5.55;;;32.50;42.30;;;;;;5032762;28;20064;-77
2022/06/22 07:25:13;;;;;;;11.15;6.00;;;32.30;42.40;;;;;;5032778;28;20537;-75
2022/06/22 07:28:00;;;;;;;13.95;6.07;;;32.40;42.80;;;;;;5032682;28;20025;-74
2022/06/22 07:30:34;;;;;;;11.27;6.30;;;32.40;41.90;;;;;;5030910;28;20112;-72
2022/06/22 07:33:31;;;;;;;10.80;5.03;;;32.60;42.20;;;;;;5031180;28;20123;-73
2022/06/22 07:36:03;;;;;;;11.68;5.38;;;32.60;41.60;;;;;;5031035;28;20017;-72
2022/06/22 07:38:35;;;;;;;17.48;6.03;;;32.40;41.80;;;;;;5031321;28;20033;-72
2022/06/22 07:41:19;;;;;;;13.00;5.75;;;32.40;41.80;;;;;;5032495;28;20025;-74
2022/06/22 07:43:51;;;;;;;16.65;5.60;;;32.30;41.60;;;;;;5032560;28;20099;-74
2022/06/22 07:46:35;;;;;;;10.85;5.00;;;32.30;41.70;;;;;;5032769;28;20037;-73
2022/06/22 07:49:34;;;;;;;17.58;5.80;;;32.30;41.40;;;;;;5033264;28;20060;-76
2022/06/22 07:52:02;;;;;;;13.05;5.00;;;32.40;40.80;;;;;;5032167;28;20568;-72
2022/06/22 07:54:36;;;;;;;16.05;5.47;;;32.40;40.70;;;;;;5031039;28;20026;-73
2022/06/22 07:57:13;;;;;;;16.10;6.28;;;32.50;41.00;;;;;;5031047;28;20033;-72
2022/06/22 07:59:49;;;;;;;15.25;6.03;;;32.60;40.50;;;;;;5032452;28;20030;-73
2022/06/22 08:02:23;;;;;;;11.35;5.50;;;32.60;41.00;;;;;;5032230;28;20029;-72
2022/06/22 08:04:59;;;;;;;13.88;5.50;;;32.60;40.70;;;;;;5032277;28;20029;-72
2022/06/22 08:07:33;;;;;;;13.75;5.50;;;32.60;40.60;;;;;;5032092;28;20051;-72
2022/06/22 08:10:07;;;;;;;12.25;5.82;;;32.60;40.20;;;;;;5031063;28;20021;-73
2022/06/22 08:13:05;;;;;;;13.93;5.45;;;32.60;40.50;;;;;;5032248;28;20060;-73
2022/06/22 08:15:35;;;;;;;15.77;5.60;;;32.60;40.50;;;;;;5031407;28;20092;-71
2022/06/22 08:18:02;;;;;;;10.85;5.97;;;32.60;40.30;;;;;;5032426;28;20116;-71
2022/06/22 08:20:31;;;;;;;10.10;5.30;;;32.60;40.40;;;;;;5032395;28;20028;-73
2022/06/22 08:22:59;;;;;;;14.73;5.07;;;32.60;40.40;;;;;;5032314;28;20028;-72
2022/06/22 08:25:25;;;;;;;12.35;4.80;;;32.60;40.00;;;;;;5032634;28;20025;-73
2022/06/22 08:27:53;;;;;;;12.57;4.70;;;32.60;39.40;;;;;;5032497;28;20029;-70
2022/06/22 08:30:19;;;;;;;11.07;5.30;;;32.60;39.70;;;;;;5033120;28;20025;-72
2022/06/22 08:33:05;;;;;;;12.65;5.15;;;32.50;38.80;;;;;;5032268;28;20500;-72
2022/06/22 08:35:57;;;;;;;15.68;4.95;;;32.50;38.90;;;;;;5032052;28;20060;-71
2022/06/22 08:38:34;;;;;;;9.55;4.60;;;32.50;38.90;;;;;;5032724;28;20044;-73
2022/06/22 08:41:57;;;;;;;8.48;4.90;;;32.50;39.20;;;;;;5034618;28;20491;-71
2022/06/22 08:44:26;;;;;;;11.77;4.82;;;32.40;38.80;;;;;;5034140;28;20025;-71
2022/06/22 08:47:23;;;;;;;8.93;4.32;;;32.40;38.20;;;;;;5017093;28;20098;-73
2022/06/22 08:50:22;;;;;;;13.73;4.28;;;32.40;38.60;;;;;;5034766;28;20033;-71
2022/06/22 08:52:50;;;;;;;7.07;4.75;;;32.30;37.60;;;;;;5034652;28;20052;-73
2022/06/22 08:55:38;;;;;;;12.40;5.35;;;32.30;38.20;;;;;;5035340;28;20022;-72
2022/06/22 08:58:23;;;;;;;14.30;5.20;;;32.20;38.50;;;;;;5035843;28;20026;-71
2022/06/22 09:01:26;;;;;;;10.38;5.20;;;32.30;39.00;;;;;;5035466;28;20100;-74
2022/06/22 09:04:26;;;;;;;10.80;4.47;;;32.20;38.70;;;;;;5035189;28;20045;-73
2022/06/22 09:07:14;;;;;;;15.10;5.20;;;32.20;38.30;;;;;;5035863;28;20076;-73
2022/06/22 09:10:06;;;;;;;15.68;6.10;;;32.20;38.00;;;;;;5033826;28;20175;-78
2022/06/22 09:12:38;;;;;;;8.90;5.50;;;32.20;37.80;;;;;;5035533;28;20037;-75
2022/06/22 09:15:25;;;;;;;11.93;5.50;;;32.20;38.50;;;;;;5035758;28;20105;-76
2022/06/22 09:18:21;;;;;;;18.80;5.63;;;32.20;38.40;;;;;;5035837;28;20135;-74
2022/06/22 09:21:09;;;;;;;9.50;5.90;;;32.20;38.10;;;;;;5035376;28;20021;-80
2022/06/22 09:24:06;;;;;;;10.20;6.45;;;32.20;38.10;;;;;;5036041;28;20093;-76
2022/06/22 09:26:55;;;;;;;11.93;6.90;;;32.20;37.70;;;;;;5035180;28;20389;-75
2022/06/22 09:29:39;;;;;;;13.57;6.93;;;32.20;37.40;;;;;;5035055;28;20110;-74
2022/06/22 09:32:33;;;;;;;10.35;5.88;;;32.30;37.80;;;;;;5034899;28;20482;-75
2022/06/22 09:35:20;;;;;;;9.23;5.88;;;32.30;37.90;;;;;;5035114;28;20022;-73
2022/06/22 09:38:00;;;;;;;13.63;6.40;;;32.30;37.90;;;;;;5034830;28;20025;-77
2022/06/22 09:40:38;;;;;;;8.75;6.93;;;32.30;38.00;;;;;;5035492;28;20063;-73
2022/06/22 09:43:44;;;;;;;14.32;6.10;;;32.30;38.10;;;;;;5034861;28;20033;-77
2022/06/22 09:46:31;;;;;;;14.07;6.60;;;32.40;38.10;;;;;;5035420;28;20029;-77
2022/06/22 09:49:03;;;;;;;34.35;9.07;;;32.40;38.10;;;;;;5034561;28;20025;-79
2022/06/22 09:51:59;;;;;;;21.92;7.95;;;32.40;38.10;;;;;;5034178;28;20087;-78
2022/06/22 09:58:05;;;;;;;;;;;32.50;38.20;;;;;;5035094;28;20513;-78
2022/06/22 10:01:00;;;;;;;14.95;7.47;;;32.50;38.00;;;;;;5034226;28;19912;-79
2022/06/22 10:03:58;;;;;;;10.95;7.45;;;32.50;38.50;;;;;;5034181;28;20088;-76
2022/06/22 10:06:38;;;;;;;12.60;7.85;;;32.60;38.50;;;;;;5034397;28;20025;-78
2022/06/22 10:09:28;;;;;;;15.63;7.13;;;32.70;38.30;;;;;;5034479;28;20022;-77
2022/06/22 10:12:39;;;;;;;12.60;7.63;;;32.80;37.30;;;;;;5035698;28;20021;-76
2022/06/22 10:15:18;;;;;;;9.02;6.63;;;32.80;37.90;;;;;;5034219;28;20055;-79
2022/06/22 10:18:09;;;;;;;15.38;8.63;;;32.90;37.70;;;;;;5033851;28;20021;-72
2022/06/22 10:20:50;;;;;;;22.65;8.25;;;33.00;37.70;;;;;;5032396;28;20430;-74
2022/06/22 10:23:58;;;;;;;26.42;8.20;;;33.00;37.90;;;;;;5033689;28;20022;-71
2022/06/22 10:26:38;;;;;;;16.20;6.90;;;33.10;36.80;;;;;;5012361;28;20421;-73
2022/06/22 10:29:26;;;;;;;13.80;6.78;;;33.20;37.70;;;;;;5033907;28;20104;-72
2022/06/22 10:32:07;;;;;;;10.00;6.43;;;33.20;37.50;;;;;;5032192;28;20040;-73
2022/06/22 10:34:54;;;;;;;7.85;6.18;;;33.30;37.90;;;;;;5033871;28;20543;-73
2022/06/22 10:37:38;;;;;;;9.07;6.13;;;33.30;37.80;;;;;;5033876;28;20099;-74
2022/06/22 10:46:23;;;;;;;15.80;5.88;;;33.40;38.30;;;;;;5033744;28;20039;-72
2022/06/22 10:48:50;;;;;;;11.70;5.43;;;33.50;37.40;;;;;;5031966;28;20021;-72
2022/06/22 10:51:34;;;;;;;7.70;4.88;;;33.50;38.10;;;;;;5033219;28;20065;-72
2022/06/22 10:54:23;;;;;;;9.30;5.05;;;33.60;38.10;;;;;;5033695;28;20388;-71
2022/06/22 10:57:12;;;;;;;13.88;5.40;;;33.60;36.80;;;;;;5033940;28;20079;-72
2022/06/22 11:00:14;;;;;;;8.23;5.28;;;33.60;36.70;;;;;;5033056;28;20026;-72
2022/06/22 11:03:22;;;;;;;13.30;4.80;;;33.70;36.90;;;;;;5032639;28;20056;-72
2022/06/22 11:05:47;;;;;;;6.47;4.35;;;33.70;36.70;;;;;;5032779;28;20498;-72
2022/06/22 11:08:36;;;;;;;8.38;5.13;;;33.70;35.70;;;;;;5033473;28;20034;-72
2022/06/22 11:11:43;;;;;;;6.97;4.55;;;33.60;35.60;;;;;;5031424;28;20499;-72
2022/06/22 11:14:46;;;;;;;7.82;4.60;;;33.70;35.00;;;;;;5031640;28;20045;-73
2022/06/22 11:17:30;;;;;;;7.57;5.00;;;33.70;35.20;;;;;;5032916;28;20029;-72
2022/06/22 11:20:11;;;;;;;8.73;4.88;;;33.70;34.50;;;;;;5032855;28;20124;-73
2022/06/22 11:22:48;;;;;;;6.97;5.30;;;33.70;34.40;;;;;;5033005;28;20022;-72
2022/06/22 11:31:52;;;;;;;10.27;5.57;;;34.00;34.10;;;;;;5032755;28;20075;-71
2022/06/22 11:35:04;;;;;;;8.93;5.25;;;34.10;33.00;;;;;;5032644;28;20152;-74
2022/06/22 11:38:02;;;;;;;12.25;5.85;;;34.10;32.40;;;;;;5022460;28;20382;-71
2022/06/22 11:40:50;;;;;;;10.63;5.32;;;34.20;32.30;;;;;;5031175;28;20356;-72
2022/06/22 11:43:42;;;;;;;10.23;5.57;;;34.20;31.60;;;;;;5033264;28;20344;-71
2022/06/22 11:46:26;;;;;;;7.10;4.82;;;34.30;31.30;;;;;;5032580;28;20482;-75
2022/06/22 11:49:21;;;;;;;8.95;5.03;;;34.30;31.00;;;;;;5033080;28;20061;-74
2022/06/22 11:52:06;;;;;;;10.63;5.50;;;34.40;30.90;;;;;;5032516;28;20525;-73
2022/06/22 11:54:43;;;;;;;8.93;5.28;;;34.40;31.00;;;;;;5032761;28;20034;-76
2022/06/22 11:57:37;;;;;;;10.15;5.43;;;34.50;30.10;;;;;;5031334;28;20025;-74
2022/06/22 12:00:17;;;;;;;9.65;4.95;;;34.50;30.30;;;;;;5032563;28;20049;-74
2022/06/22 12:02:55;;;;;;;13.15;6.05;;;34.60;30.70;;;;;;5031490;28;20037;-74
2022/06/22 12:05:28;;;;;;;11.15;5.18;;;34.60;30.40;;;;;;5032817;28;20055;-75
2022/06/22 12:07:54;;;;;;;;;;;34.70;30.20;;;;;;5032990;28;20029;-76
2022/06/22 12:10:31;;;;;;;11.93;5.40;;;34.80;29.70;;;;;;5030912;28;19905;-77
2022/06/22 12:13:00;;;;;;;14.15;5.45;;;34.80;30.50;;;;;;5032850;28;20112;-72
2022/06/22 12:15:53;;;;;;;7.95;5.78;;;34.90;30.30;;;;;;5036429;28;20040;-72
2022/06/22 12:18:28;;;;;;;9.73;5.03;;;34.90;29.80;;;;;;5036281;28;20038;-76
2022/06/22 12:21:09;;;;;;;9.48;5.22;;;34.90;29.80;;;;;;5035650;28;20032;-73
2022/06/22 12:23:38;;;;;;;8.75;5.82;;;34.90;29.90;;;;;;5035779;28;20030;-74
2022/06/22 12:26:39;;;;;;;8.88;5.53;;;34.90;29.90;;;;;;5036100;28;20153;-76
2022/06/22 12:30:12;;;;;;;11.52;5.75;;;35.00;30.00;;;;;;5036056;28;20032;-74
2022/06/22 12:33:04;;;;;;;10.20;5.47;;;35.00;29.20;;;;;;5023203;28;20034;-73
2022/06/22 12:35:48;;;;;;;11.13;5.40;;;35.00;30.00;;;;;;5034263;28;20045;-77
2022/06/22 12:38:26;;;;;;;10.57;5.05;;;35.00;30.80;;;;;;5034281;28;20537;-72
2022/06/22 12:41:14;;;;;;;7.80;5.05;;;35.10;29.30;;;;;;5034214;28;20044;-72
2022/06/22 12:44:01;;;;;;;7.65;4.72;;;35.10;29.30;;;;;;5036060;28;20212;-75
2022/06/22 12:46:32;;;;;;;8.50;4.82;;;35.20;29.00;;;;;;5035774;28;20406;-71
2022/06/22 12:49:17;;;;;;;6.63;4.85;;;35.20;28.50;;;;;;5035977;28;20026;-74
2022/06/22 12:51:58;;;;;;;9.23;5.30;;;35.20;28.30;;;;;;5035274;28;20049;-72
2022/06/22 12:54:35;;;;;;;11.25;4.80;;;35.20;28.50;;;;;;5034119;28;20487;-73
2022/06/22 12:57:13;;;;;;;12.75;5.32;;;35.20;28.30;;;;;;5035167;28;20056;-73
2022/06/22 13:00:10;;;;;;;8.90;4.82;;;35.20;27.70;;;;;;5035358;28;20104;-71
2022/06/22 13:02:36;;;;;;;10.05;5.15;;;35.20;27.60;;;;;;5035064;28;20048;-74
2022/06/22 13:05:11;;;;;;;18.30;5.20;;;35.20;28.40;;;;;;5035187;28;20040;-72
2022/06/22 13:07:46;;;;;;;9.02;4.75;;;35.30;28.00;;;;;;5033845;28;20478;-70
2022/06/22 13:10:38;;;;;;;10.93;4.65;;;35.30;27.70;;;;;;5034969;28;20036;-72
2022/06/22 13:13:35;;;;;;;7.47;5.00;;;35.20;27.70;;;;;;5034300;28;20375;-71
2022/06/22 13:16:10;;;;;;;7.03;4.75;;;35.20;27.40;;;;;;5024823;28;20498;-72
2022/06/22 13:19:10;;;;;;;10.73;5.15;;;35.20;27.90;;;;;;5034955;28;20030;-73
2022/06/22 13:21:54;;;;;;;7.72;4.95;;;35.20;27.10;;;;;;5033689;28;20025;-72
2022/06/22 13:24:37;;;;;;;13.20;4.97;;;35.20;27.90;;;;;;5034436;28;20022;-72
2022/06/22 13:27:28;;;;;;;7.05;4.35;;;35.20;28.00;;;;;;5034591;28;20037;-73
2022/06/22 13:30:03;;;;;;;8.40;4.65;;;35.20;27.80;;;;;;5034455;28;20462;-72
2022/06/22 13:32:32;;;;;;;7.50;5.10;;;35.20;28.80;;;;;;5034584;28;20052;-75
2022/06/22 13:35:24;;;;;;;11.88;5.20;;;35.20;28.90;;;;;;5033236;28;20368;-73
2022/06/22 13:38:18;;;;;;;7.10;4.38;;;35.10;28.30;;;;;;5034796;28;20026;-72
2022/06/22 13:40:47;;;;;;;11.77;4.25;;;35.00;29.00;;;;;;5034822;28;20056;-72
2022/06/22 13:43:37;;;;;;;12.98;4.05;;;35.00;29.90;;;;;;5034788;28;20091;-73
2022/06/22 13:46:35;;;;;;;10.20;4.70;;;35.00;30.60;;;;;;5033214;28;20022;-71
2022/06/22 13:49:36;;;;;;;9.02;3.90;;;34.90;30.10;;;;;;5034666;28;20037;-72
2022/06/22 13:52:17;;;;;;;7.72;3.88;;;34.90;31.20;;;;;;5034562;28;20043;-72
2022/06/22 13:55:12;;;;;;;7.20;3.88;;;34.80;30.60;;;;;;5032973;28;20443;-72
2022/06/22 13:57:47;;;;;;;8.05;3.83;;;34.70;30.50;;;;;;5032435;28;20033;-73
2022/06/22 14:00:42;;;;;;;7.72;4.22;;;34.60;32.30;;;;;;5032973;28;20454;-72
2022/06/22 14:03:29;;;;;;;8.48;4.55;;;34.50;32.00;;;;;;5033521;28;20037;-71
2022/06/22 14:06:00;;;;;;;8.85;4.95;;;34.50;30.40;;;;;;5032640;28;20033;-73
2022/06/22 14:09:05;;;;;;;8.02;5.15;;;34.50;30.20;;;;;;5034061;28;20040;-71